Detalii statie PETRESTI PETRESTI [0000197D]

Toti senzorii

Date Temperatura solului [C]Precipitatii [mm]Voltaj baterie [mV]Leaf Wetness [Min]HC Air temperature [C]HC Relative humidity [%]Punctul de roua [C]
medieminmaxsumaultimatimpmedieminmaxmediemediemin
2017-06-25 06:00:00 22.1 22 22.2 0 6826 16.25 14.93 16.93 100 16.2 14.9
2017-06-25 07:00:00 22 22 22.1 0 6864 17.63 17.09 18.52 100 17.5 17
2017-06-25 08:00:00 22 21.8 22.2 0 6962 20.5 18.79 22.65 97.78 20 17.9
2017-06-25 09:00:00 22.1 22 22.3 0 7088 24.4 22.43 27.1 95.89 23.5 20.3
2017-06-25 10:00:00 22.4 22.1 22.7 0 6992 25.64 21.9 27.6 77.67 21 16
2017-06-25 11:00:00 22.7 22.6 22.9 0.4 6972 20.96 20.36 21.62 99.86 20.9 20.3
2017-06-25 12:00:00 22.6 22.5 22.9 0.2 7226 23.01 21.16 26.16 96.79 22.3 21.1
2017-06-25 13:00:00 22.8 22.6 23.2 0 7216 28.19 26.66 31.06 75.32 22.9 19.8
2017-06-25 14:00:00 23.6 23.2 24.1 0 7226 29.11 28.55 29.49 56.06 19.2 18.8
2017-06-25 15:00:00 24.3 23.9 24.7 0 7196 28.81 28.24 29.35 53.67 18.2 17.7
2017-06-25 16:00:00 24.7 24.6 24.8 0 7070 27.38 25.18 29.49 67.45 20.6 19.7
2017-06-25 17:00:00 24.9 24.6 25.2 0 7020 26.69 25.98 27.23 74.38 21.5 20.7
2017-06-25 18:00:00 25 24.9 25.2 0 7040 27.1 26.49 27.95 75.4 22.2 21.8
2017-06-25 19:00:00 25.1 25 25.4 0 7030 26.36 25.71 27 82.88 23.1 22.4
2017-06-25 20:00:00 25 24.9 25.3 0 6942 24.34 23.17 25.71 91.5 22.7 22.1
2017-06-25 21:00:00 24.7 24.6 25.1 0.2 6894 22.12 21.58 22.99 100 22 21.5
2017-06-25 22:00:00 24.4 24.2 24.7 0.2 6844 21.54 20.91 22.27 99.67 21.4 20.9
2017-06-25 23:00:00 24 24 24.4 1.2 6844 20.22 19.51 20.81 100 20.1 19.5
2017-06-26 00:00:00 23.7 23.6 23.9 0 6756 19.16 18.63 19.6 79.47 0
2017-06-26 01:00:00 23.3 23.2 23.6 1 6806 18.92 18.79 19.07 0 0 0
2017-06-26 02:00:00 23.1 22.9 23.4 3.8 6796 18.86 18.73 19.05 0 0 0
2017-06-26 03:00:00 22.7 22.6 22.9 0 6786 18.57 18.33 18.68 0 0 0
2017-06-26 04:00:00 22.3 22.2 22.5 0 6786 18.2 17.98 18.62 0 0 0
2017-06-26 05:00:00 22.2 22.1 22.3 0 6786 17.96 17.91 18.05 0 0 0
2017-06-26 06:00:00 22.1 22 22.3 0 6796 18.27 18 18.52 0 0 0
2017-06-26 07:00:00 22 22 22.2 0 6854 18.83 18.59 18.94 0 0 0
2017-06-26 08:00:00 22 22 22.2 0 6914 19.38 19.05 19.99 0 0 0
2017-06-26 09:00:00 22.1 21.9 22.2 0 7088 20.36 19.57 20.87 0 0 0
2017-06-26 10:00:00 22.3 22.2 22.6 0 7196 22.34 21.57 23.08 0 0 0
2017-06-26 11:00:00 22.6 22.5 22.8 0 7206 22.86 22.57 23.09 0 0 0
2017-06-26 12:00:00 23 22.9 23.2 0 7098 24.08 23.14 25.17 40.91 10.2 0
2017-06-26 13:00:00 23.3 23.3 23.5 0 7060 24.69 23.58 26.02 93.8 23.2 11.5
2017-06-26 14:00:00 23.7 23.6 24.1 0 7226 25.4 24.68 26.03 100 25.3 24.6
2017-06-26 15:00:00 24.2 24 24.5 0 7080 26.21 25.75 26.75 100 26.1 25.7
2017-06-26 16:00:00 24.7 24.5 24.9 0 7226 26.3 25.78 26.98 96.52 25.5 21.2
2017-06-26 17:00:00 24.9 24.8 25.2 0 6972 26.56 26.11 27.08 89.44 24.4 21.7
2017-06-26 18:00:00 25.3 25.1 27 0 7226 26.01 25.06 26.89 97.27 25.4 19.7
2017-06-26 19:00:00 25.2 24.9 26.8 0 6932 25.28 24.08 26.21 97.01 24.6 20.5
2017-06-26 20:00:00 24.8 24.5 24.9 0 6922 23.71 23.03 24.25 100 23.6 23
2017-06-26 21:00:00 24.3 24.1 24.6 0 6884 21.99 20.63 22.97 99.47 21.8 20.6